^^
Station Historical Data
Daily Summary for January 03, 2018 Units:  Both    English   Metric
« Previous Day
Next Day »
Daily Weekly Monthly Yearly Custom
  High: Low: Average:
Temperature: TemperatureF °F /  -17.8 °C 36.0 °F /  2.2 °C 46 °F /  7.8 °C
Dew Point: DewpointF °F /  -17.8 °C 30.7 °F /  -0.7 °C 43.3 °F /  6.3 °C
Humidity: Humidity% 71% 90%
Wind Speed: WindSpeedMPHmph /  0km/h - 0mph /  0km/h
Wind Gust: WindSpeedGustMPHmph /  0km/h - -
Wind- - North
Pressure: PressureIn in /  0 hPa 29.93 in /  1013.4 hPa -
Precipitation: 0.99 in /  25.15 mm    
Historical Graphs
 
 
Tabular Data for January 03, 2018
Time Temperature Dew Point Pressure Wind Wind Speed Wind Gust Humidity Rainfall Rate (Hourly) solar Conditions
TemperatureF °F /  -17.8 °C DewpointF °F /  -17.8 °C PressureInin /  0hPa Calm     Humidity% HourlyPrecipInin /  0mm SolarRadiationWatts/m^2 W/m2 Conditions
00:00 48.0 °F /  8.9 °C 45.8 °F /  7.7 °C 30.16in /  1021.2hPa Calm     92% 0.00in /  0mm 0.0 W/m2 OVC
00:20 48.0 °F /  8.9 °C 45.8 °F /  7.7 °C 30.15in /  1020.9hPa Calm     92% 0.00in /  0mm 0.0 W/m2 -RA
00:25 48.0 °F /  8.9 °C 45.8 °F /  7.7 °C 30.15in /  1020.9hPa Calm     92% 0.00in /  0mm 0.0 W/m2 -RA
00:30 48.0 °F /  8.9 °C 45.8 °F /  7.7 °C 30.15in /  1020.9hPa Calm     92% 0.00in /  0mm 0.0 W/m2 -RA
00:40 48.0 °F /  8.9 °C 45.8 °F /  7.7 °C 30.15in /  1020.9hPa Calm     92% 0.00in /  0mm 0.0 W/m2 -RA
00:50 48.0 °F /  8.9 °C 45.8 °F /  7.7 °C 30.15in /  1020.9hPa Calm     92% 0.00in /  0mm 0.0 W/m2 -RA
00:55 48.0 °F /  8.9 °C 45.8 °F /  7.7 °C 30.15in /  1020.9hPa Calm     92% 0.00in /  0mm 0.0 W/m2 -RA
01:10 48.0 °F /  8.9 °C 46.9 °F /  8.3 °C 30.11in /  1019.5hPa Calm     96% 0.00in /  0mm 0.0 W/m2 RA
01:15 48.0 °F /  8.9 °C 46.9 °F /  8.3 °C 30.11in /  1019.5hPa Calm     96% 0.00in /  0mm 0.0 W/m2 OVC
01:25 48.0 °F /  8.9 °C 46.9 °F /  8.3 °C 30.11in /  1019.5hPa Calm     96% 0.00in /  0mm 0.0 W/m2 OVC
01:30 48.0 °F /  8.9 °C 46.9 °F /  8.3 °C 30.11in /  1019.5hPa Calm     96% 0.00in /  0mm 0.0 W/m2 OVC
01:40 48.0 °F /  8.9 °C 46.9 °F /  8.3 °C 30.10in /  1019.2hPa Calm     96% 0.00in /  0mm 0.0 W/m2 OVC
01:45 48.0 °F /  8.9 °C 46.9 °F /  8.3 °C 30.10in /  1019.2hPa Calm     96% 0.00in /  0mm 0.0 W/m2 OVC
01:55 48.0 °F /  8.9 °C 46.9 °F /  8.3 °C 30.10in /  1019.2hPa Calm     96% 0.00in /  0mm 0.0 W/m2 OVC
02:00 48.0 °F /  8.9 °C 46.9 °F /  8.3 °C 30.10in /  1019.2hPa Calm     96% 0.00in /  0mm 0.0 W/m2 OVC
02:25 48.0 °F /  8.9 °C 46.9 °F /  8.3 °C 30.09in /  1018.8hPa Calm     96% 0.00in /  0mm 0.0 W/m2 OVC
02:30 48.0 °F /  8.9 °C 46.9 °F /  8.3 °C 30.09in /  1018.8hPa Calm     96% 0.00in /  0mm 0.0 W/m2 OVC
02:40 48.0 °F /  8.9 °C 46.9 °F /  8.3 °C 30.09in /  1018.8hPa Calm     96% 0.00in /  0mm 0.0 W/m2 OVC
02:45 48.0 °F /  8.9 °C 46.9 °F /  8.3 °C 30.09in /  1018.8hPa Calm     96% 0.00in /  0mm 0.0 W/m2 OVC
02:55 48.0 °F /  8.9 °C 46.9 °F /  8.3 °C 30.09in /  1018.8hPa Calm     96% 0.00in /  0mm 0.0 W/m2 OVC
03:00 48.0 °F /  8.9 °C 46.9 °F /  8.3 °C 30.09in /  1018.8hPa Calm     96% 0.00in /  0mm 0.0 W/m2 OVC
03:05 48.9 °F /  9.4 °C 47.8 °F /  8.8 °C 30.06in /  1017.8hPa Calm     96% 0.02in /  0.51mm 0.0 W/m2 RA
03:10 48.9 °F /  9.4 °C 47.8 °F /  8.8 °C 30.06in /  1017.8hPa Calm     96% 0.02in /  0.51mm 0.0 W/m2 RA
03:15 48.9 °F /  9.4 °C 47.8 °F /  8.8 °C 30.06in /  1017.8hPa Calm     96% 0.00in /  0mm 0.0 W/m2 OVC
03:25 48.9 °F /  9.4 °C 47.8 °F /  8.8 °C 30.06in /  1017.8hPa Calm     96% 0.00in /  0mm 0.0 W/m2 OVC
03:45 48.9 °F /  9.4 °C 47.8 °F /  8.8 °C 30.06in /  1017.8hPa Calm     96% 0.00in /  0mm 0.0 W/m2 -RA
03:55 48.9 °F /  9.4 °C 47.8 °F /  8.8 °C 30.06in /  1017.8hPa Calm     96% 0.00in /  0mm 0.0 W/m2 -RA
04:10 48.0 °F /  8.9 °C 48.0 °F /  8.9 °C 30.03in /  1016.8hPa Calm     100% 0.00in /  0mm 0.0 W/m2 OVC
04:15 48.0 °F /  8.9 °C 48.0 °F /  8.9 °C 30.03in /  1016.8hPa Calm     100% 0.00in /  0mm 0.0 W/m2 OVC
04:30 48.0 °F /  8.9 °C 48.0 °F /  8.9 °C 30.03in /  1016.8hPa Calm     100% 0.00in /  0mm 0.0 W/m2 OVC
04:40 48.0 °F /  8.9 °C 48.0 °F /  8.9 °C 30.01in /  1016.1hPa Calm     100% 0.00in /  0mm 0.0 W/m2 OVC
04:45 48.0 °F /  8.9 °C 48.0 °F /  8.9 °C 30.01in /  1016.1hPa Calm     100% 0.00in /  0mm 0.0 W/m2 OVC
04:55 48.0 °F /  8.9 °C 48.0 °F /  8.9 °C 30.01in /  1016.1hPa Calm     100% 0.00in /  0mm 0.0 W/m2 OVC
05:15 48.9 °F /  9.4 °C 48.9 °F /  9.4 °C 30.00in /  1015.8hPa Calm     100% 0.00in /  0mm 0.0 W/m2 OVC
05:25 48.9 °F /  9.4 °C 48.9 °F /  9.4 °C 30.00in /  1015.8hPa Calm     100% 0.00in /  0mm 0.0 W/m2 OVC
05:30 48.9 °F /  9.4 °C 48.9 °F /  9.4 °C 30.00in /  1015.8hPa Calm     100% 0.00in /  0mm 0.0 W/m2 OVC
05:40 48.9 °F /  9.4 °C 48.9 °F /  9.4 °C 30.00in /  1015.8hPa Calm     100% 0.00in /  0mm 0.0 W/m2 +RA
05:45 48.9 °F /  9.4 °C 48.9 °F /  9.4 °C 30.00in /  1015.8hPa Calm     100% 0.00in /  0mm 0.0 W/m2 +RA
05:55 48.9 °F /  9.4 °C 48.9 °F /  9.4 °C 30.00in /  1015.8hPa Calm     100% 0.00in /  0mm 0.0 W/m2 OVC
06:00 48.9 °F /  9.4 °C 48.9 °F /  9.4 °C 30.00in /  1015.8hPa Calm     100% 0.00in /  0mm 0.0 W/m2 OVC
06:10 48.9 °F /  9.4 °C 48.9 °F /  9.4 °C 29.99in /  1015.5hPa Calm     100% 0.11in /  2.79mm 0.0 W/m2 +RA
06:25 50.0 °F /  10 °C 50.0 °F /  10 °C 29.99in /  1015.5hPa Calm     100% 0.00in /  0mm 0.0 W/m2 +RA
06:30 50.0 °F /  10 °C 50.0 °F /  10 °C 29.99in /  1015.5hPa Calm     100% 0.00in /  0mm 0.0 W/m2 +RA
06:40 50.0 °F /  10 °C 50.0 °F /  10 °C 29.98in /  1015.1hPa Calm     100% 0.00in /  0mm 0.0 W/m2 +RA
06:45 50.0 °F /  10 °C 50.0 °F /  10 °C 29.98in /  1015.1hPa Calm     100% 0.00in /  0mm 0.0 W/m2 +RA
06:55 50.0 °F /  10 °C 50.0 °F /  10 °C 29.98in /  1015.1hPa Calm     100% 0.00in /  0mm 0.0 W/m2 +RA
07:10 50.0 °F /  10 °C 50.0 °F /  10 °C 30.00in /  1015.8hPa Calm     100% 0.21in /  5.33mm 0.0 W/m2 +RA
07:15 50.0 °F /  10 °C 50.0 °F /  10 °C 30.00in /  1015.8hPa Calm     100% 0.00in /  0mm 0.0 W/m2 +RA
07:30 51.1 °F /  10.6 °C 51.1 °F /  10.6 °C 29.99in /  1015.5hPa Calm     100% 0.00in /  0mm 0.0 W/m2 OVC
07:40 51.1 °F /  10.6 °C 51.1 °F /  10.6 °C 29.99in /  1015.5hPa Calm     100% 0.00in /  0mm 0.0 W/m2 OVC
07:45 51.1 °F /  10.6 °C 51.1 °F /  10.6 °C 29.99in /  1015.5hPa Calm     100% 0.00in /  0mm 0.0 W/m2 OVC
07:50 51.1 °F /  10.6 °C 51.1 °F /  10.6 °C 29.98in /  1015.1hPa Calm     100% 0.00in /  0mm 0.0 W/m2 -RA
08:00 51.1 °F /  10.6 °C 51.1 °F /  10.6 °C 29.98in /  1015.1hPa Calm     100% 0.00in /  0mm 0.0 W/m2 -RA
08:10 51.1 °F /  10.6 °C 51.1 °F /  10.6 °C 29.98in /  1015.1hPa Calm     100% 0.00in /  0mm 0.0 W/m2 RA
08:15 51.1 °F /  10.6 °C 51.1 °F /  10.6 °C 29.98in /  1015.1hPa Calm     100% 0.00in /  0mm 0.0 W/m2 OVC
08:25 51.1 °F /  10.6 °C 51.1 °F /  10.6 °C 29.98in /  1015.1hPa Calm     100% 0.00in /  0mm 0.0 W/m2 OVC
08:30 51.1 °F /  10.6 °C 51.1 °F /  10.6 °C 29.98in /  1015.1hPa Calm     100% 0.00in /  0mm 0.0 W/m2 OVC
08:45 51.1 °F /  10.6 °C 51.1 °F /  10.6 °C 29.98in /  1015.1hPa Calm     100% 0.00in /  0mm 0.0 W/m2 OVC
08:55 52.0 °F /  11.1 °C 52.0 °F /  11.1 °C 29.96in /  1014.4hPa Calm     100% 0.00in /  0mm 0.0 W/m2 OVC
09:05 51.1 °F /  10.6 °C 51.1 °F /  10.6 °C 29.96in /  1014.4hPa Calm     100% 0.00in /  0mm 0.0 W/m2 -RA
09:10 51.1 °F /  10.6 °C 51.1 °F /  10.6 °C 29.96in /  1014.4hPa Calm     100% 0.11in /  2.79mm 0.0 W/m2 -RA
09:15 51.1 °F /  10.6 °C 51.1 °F /  10.6 °C 29.96in /  1014.4hPa Calm     100% 0.00in /  0mm 0.0 W/m2 -RA
09:25 51.1 °F /  10.6 °C 51.1 °F /  10.6 °C 29.96in /  1014.4hPa Calm     100% 0.00in /  0mm 0.0 W/m2 -RA
09:30 51.1 °F /  10.6 °C 51.1 °F /  10.6 °C 29.96in /  1014.4hPa Calm     100% 0.00in /  0mm 0.0 W/m2 -RA
09:40 51.1 °F /  10.6 °C 51.1 °F /  10.6 °C 29.96in /  1014.4hPa Calm     100% 0.00in /  0mm 0.0 W/m2 -RA
09:45 51.1 °F /  10.6 °C 51.1 °F /  10.6 °C 29.96in /  1014.4hPa Calm     100% 0.00in /  0mm 0.0 W/m2 -RA
09:55 51.1 °F /  10.6 °C 51.1 °F /  10.6 °C 29.96in /  1014.4hPa Calm     100% 0.00in /  0mm 0.0 W/m2 OVC
10:00 51.1 °F /  10.6 °C 51.1 °F /  10.6 °C 29.96in /  1014.4hPa Calm     100% 0.00in /  0mm 0.0 W/m2 OVC
10:10 48.0 °F /  8.9 °C 48.0 °F /  8.9 °C 30.02in /  1016.5hPa Calm     100% 0.00in /  0mm 0.0 W/m2 +RA
10:15 48.0 °F /  8.9 °C 48.0 °F /  8.9 °C 30.02in /  1016.5hPa Calm     100% 0.00in /  0mm 0.0 W/m2 +RA
10:25 44.1 °F /  6.7 °C 42.7 °F /  5.9 °C 30.06in /  1017.8hPa Calm     95% 0.00in /  0mm 0.0 W/m2 +RA
10:30 44.1 °F /  6.7 °C 42.7 °F /  5.9 °C 30.06in /  1017.8hPa Calm     95% 0.00in /  0mm 0.0 W/m2 +RA
10:40 41.0 °F /  5 °C 39.7 °F /  4.3 °C 30.07in /  1018.2hPa Calm     95% 0.00in /  0mm 0.0 W/m2 +RA
10:45 41.0 °F /  5 °C 39.7 °F /  4.3 °C 30.07in /  1018.2hPa Calm     95% 0.00in /  0mm 0.0 W/m2 +RA
11:00 41.0 °F /  5 °C 39.7 °F /  4.3 °C 30.07in /  1018.2hPa Calm     95% 0.00in /  0mm 0.0 W/m2 +RA
11:10 39.0 °F /  3.9 °C 37.7 °F /  3.2 °C 30.06in /  1017.8hPa Calm     95% 0.00in /  0mm 0.0 W/m2 -SN
11:25 39.0 °F /  3.9 °C 37.7 °F /  3.2 °C 30.06in /  1017.8hPa Calm     95% 0.00in /  0mm 0.0 W/m2 -SN
11:30 39.0 °F /  3.9 °C 37.7 °F /  3.2 °C 30.06in /  1017.8hPa Calm     95% 0.00in /  0mm 0.0 W/m2 -SN
11:40 39.0 °F /  3.9 °C 37.7 °F /  3.2 °C 30.06in /  1017.8hPa Calm     95% 0.00in /  0mm 0.0 W/m2 -SN
11:55 39.0 °F /  3.9 °C 37.7 °F /  3.2 °C 30.06in /  1017.8hPa Calm     95% 0.00in /  0mm 0.0 W/m2 OVC
12:00 39.0 °F /  3.9 °C 37.7 °F /  3.2 °C 30.06in /  1017.8hPa Calm     95% 0.00in /  0mm 0.0 W/m2 OVC
12:10 41.0 °F /  5 °C 41.0 °F /  5 °C 29.99in /  1015.5hPa Calm     100% 0.00in /  0mm 0.0 W/m2 -RA
12:15 41.0 °F /  5 °C 41.0 °F /  5 °C 29.99in /  1015.5hPa Calm     100% 0.00in /  0mm 0.0 W/m2 -RA
12:30 41.0 °F /  5 °C 41.0 °F /  5 °C 29.99in /  1015.5hPa Calm     100% 0.00in /  0mm 0.0 W/m2 -RA
12:40 41.0 °F /  5 °C 41.0 °F /  5 °C 29.99in /  1015.5hPa Calm     100% 0.00in /  0mm 0.0 W/m2 -RA
12:45 41.0 °F /  5 °C 41.0 °F /  5 °C 29.99in /  1015.5hPa Calm     100% 0.00in /  0mm 0.0 W/m2 -RA
12:55 44.1 °F /  6.7 °C 44.1 °F /  6.7 °C 30.00in /  1015.8hPa Calm     100% 0.00in /  0mm 0.0 W/m2 -RA
13:05 44.1 °F /  6.7 °C 44.1 °F /  6.7 °C 30.00in /  1015.8hPa Calm     100% 0.00in /  0mm 0.0 W/m2 RA
13:25 44.1 °F /  6.7 °C 44.1 °F /  6.7 °C 29.97in /  1014.8hPa Calm     100% 0.00in /  0mm 0.0 W/m2 OVC
13:30 44.1 °F /  6.7 °C 44.1 °F /  6.7 °C 29.97in /  1014.8hPa Calm     100% 0.00in /  0mm 0.0 W/m2 OVC
13:40 44.1 °F /  6.7 °C 44.1 °F /  6.7 °C 29.97in /  1014.8hPa Calm     100% 0.00in /  0mm 0.0 W/m2 OVC
13:45 44.1 °F /  6.7 °C 44.1 °F /  6.7 °C 29.97in /  1014.8hPa Calm     100% 0.00in /  0mm 0.0 W/m2 OVC
13:55 44.1 °F /  6.7 °C 44.1 °F /  6.7 °C 29.97in /  1014.8hPa Calm     100% 0.00in /  0mm 0.0 W/m2 OVC
14:00 44.1 °F /  6.7 °C 44.1 °F /  6.7 °C 29.97in /  1014.8hPa Calm     100% 0.00in /  0mm 0.0 W/m2 OVC
14:10 48.0 °F /  8.9 °C 44.9 °F /  7.2 °C 29.94in /  1013.8hPa Calm     89% 0.00in /  0mm 0.0 W/m2 RA
14:15 48.0 °F /  8.9 °C 44.9 °F /  7.2 °C 29.94in /  1013.8hPa Calm     89% 0.00in /  0mm 0.0 W/m2 BKN
14:30 48.0 °F /  8.9 °C 44.9 °F /  7.2 °C 29.94in /  1013.8hPa Calm     89% 0.00in /  0mm 0.0 W/m2 BKN
14:40 48.0 °F /  8.9 °C 44.9 °F /  7.2 °C 29.94in /  1013.8hPa Calm     89% 0.00in /  0mm 0.0 W/m2 BKN
14:45 48.0 °F /  8.9 °C 44.9 °F /  7.2 °C 29.94in /  1013.8hPa Calm     89% 0.00in /  0mm 0.0 W/m2 BKN
14:55 48.0 °F /  8.9 °C 44.9 °F /  7.2 °C 29.94in /  1013.8hPa Calm     89% 0.00in /  0mm 0.0 W/m2 BKN
15:00 48.0 °F /  8.9 °C 44.9 °F /  7.2 °C 29.94in /  1013.8hPa Calm     89% 0.00in /  0mm 0.0 W/m2 BKN
15:10 50.0 °F /  10 °C 43.7 °F /  6.5 °C 29.94in /  1013.8hPa Calm     79% 0.00in /  0mm 0.0 W/m2 OVC
15:25 50.0 °F /  10 °C 43.7 °F /  6.5 °C 29.94in /  1013.8hPa Calm     79% 0.00in /  0mm 0.0 W/m2 OVC
15:30 50.0 °F /  10 °C 43.7 °F /  6.5 °C 29.94in /  1013.8hPa Calm     79% 0.00in /  0mm 0.0 W/m2 OVC
15:40 50.0 °F /  10 °C 43.7 °F /  6.5 °C 29.94in /  1013.8hPa Calm     79% 0.00in /  0mm 0.0 W/m2 OVC
15:55 50.0 °F /  10 °C 42.7 °F /  5.9 °C 29.94in /  1013.8hPa Calm     76% 0.00in /  0mm 0.0 W/m2 OVC
16:00 50.0 °F /  10 °C 42.7 °F /  5.9 °C 29.94in /  1013.8hPa Calm     76% 0.00in /  0mm 0.0 W/m2 OVC
16:10 48.9 °F /  9.4 °C 42.0 °F /  5.6 °C 29.94in /  1013.8hPa Calm     77% 0.00in /  0mm 0.0 W/m2 BKN
16:15 48.9 °F /  9.4 °C 42.0 °F /  5.6 °C 29.94in /  1013.8hPa Calm     77% 0.00in /  0mm 0.0 W/m2 BKN
16:25 48.9 °F /  9.4 °C 42.0 °F /  5.6 °C 29.94in /  1013.8hPa Calm     77% 0.00in /  0mm 0.0 W/m2 BKN
16:45 48.9 °F /  9.4 °C 42.0 °F /  5.6 °C 29.94in /  1013.8hPa Calm     77% 0.00in /  0mm 0.0 W/m2 BKN
16:50 48.9 °F /  9.4 °C 42.0 °F /  5.6 °C 29.94in /  1013.8hPa Calm     77% 0.00in /  0mm 0.0 W/m2 BKN
17:00 48.9 °F /  9.4 °C 42.0 °F /  5.6 °C 29.94in /  1013.8hPa Calm     77% 0.00in /  0mm 0.0 W/m2 BKN
17:10 50.0 °F /  10 °C 41.0 °F /  5 °C 29.93in /  1013.4hPa Calm     71% 0.00in /  0mm 0.0 W/m2 FEW
17:20 50.0 °F /  10 °C 41.0 °F /  5 °C 29.93in /  1013.4hPa Calm     71% 0.00in /  0mm 0.0 W/m2 FEW
17:30 50.0 °F /  10 °C 41.0 °F /  5 °C 29.93in /  1013.4hPa Calm     71% 0.00in /  0mm 0.0 W/m2 FEW
17:40 50.0 °F /  10 °C 41.0 °F /  5 °C 29.93in /  1013.4hPa Calm     71% 0.00in /  0mm 0.0 W/m2 FEW
17:45 50.0 °F /  10 °C 41.0 °F /  5 °C 29.93in /  1013.4hPa Calm     71% 0.00in /  0mm 0.0 W/m2 FEW
18:10 46.9 °F /  8.3 °C 40.8 °F /  4.9 °C 29.95in /  1014.1hPa Calm     79% 0.00in /  0mm 0.0 W/m2 BKN
18:15 46.9 °F /  8.3 °C 40.8 °F /  4.9 °C 29.95in /  1014.1hPa Calm     79% 0.00in /  0mm 0.0 W/m2 BKN
18:25 46.9 °F /  8.3 °C 40.8 °F /  4.9 °C 29.95in /  1014.1hPa Calm     79% 0.00in /  0mm 0.0 W/m2 BKN
18:30 46.9 °F /  8.3 °C 40.8 °F /  4.9 °C 29.95in /  1014.1hPa Calm     79% 0.00in /  0mm 0.0 W/m2 BKN
18:40 46.9 °F /  8.3 °C 40.8 °F /  4.9 °C 29.95in /  1014.1hPa Calm     79% 0.00in /  0mm 0.0 W/m2 BKN
18:45 46.9 °F /  8.3 °C 40.8 °F /  4.9 °C 29.95in /  1014.1hPa Calm     79% 0.00in /  0mm 0.0 W/m2 BKN
19:10 45.0 °F /  7.2 °C 39.8 °F /  4.3 °C 29.98in /  1015.1hPa Calm     82% 0.00in /  0mm 0.0 W/m2 OVC
19:15 45.0 °F /  7.2 °C 39.8 °F /  4.3 °C 29.98in /  1015.1hPa Calm     82% 0.00in /  0mm 0.0 W/m2 OVC
19:30 45.0 °F /  7.2 °C 38.8 °F /  3.8 °C 29.99in /  1015.5hPa Calm     79% 0.00in /  0mm 0.0 W/m2 OVC
19:40 45.0 °F /  7.2 °C 38.8 °F /  3.8 °C 29.99in /  1015.5hPa Calm     79% 0.00in /  0mm 0.0 W/m2 OVC
19:45 45.0 °F /  7.2 °C 38.8 °F /  3.8 °C 29.99in /  1015.5hPa Calm     79% 0.00in /  0mm 0.0 W/m2 OVC
19:55 45.0 °F /  7.2 °C 38.8 °F /  3.8 °C 29.99in /  1015.5hPa Calm     79% 0.00in /  0mm 0.0 W/m2 OVC
20:00 45.0 °F /  7.2 °C 38.8 °F /  3.8 °C 29.99in /  1015.5hPa Calm     79% 0.00in /  0mm 0.0 W/m2 OVC
20:10 43.0 °F /  6.1 °C 36.9 °F /  2.7 °C 30.01in /  1016.1hPa Calm     79% 0.00in /  0mm 0.0 W/m2 BKN
20:30 43.0 °F /  6.1 °C 36.9 °F /  2.7 °C 30.01in /  1016.1hPa Calm     79% 0.00in /  0mm 0.0 W/m2 BKN
20:40 42.1 °F /  5.6 °C 35.7 °F /  2.1 °C 30.03in /  1016.8hPa Calm     78% 0.00in /  0mm 0.0 W/m2 BKN
20:45 42.1 °F /  5.6 °C 35.7 °F /  2.1 °C 30.03in /  1016.8hPa Calm     78% 0.00in /  0mm 0.0 W/m2 BKN
20:55 42.1 °F /  5.6 °C 35.7 °F /  2.1 °C 30.03in /  1016.8hPa Calm     78% 0.00in /  0mm 0.0 W/m2 BKN
21:00 42.1 °F /  5.6 °C 35.7 °F /  2.1 °C 30.03in /  1016.8hPa Calm     78% 0.00in /  0mm 0.0 W/m2 BKN
21:15 41.0 °F /  5 °C 35.0 °F /  1.7 °C 30.04in /  1017.2hPa Calm     79% 0.00in /  0mm 0.0 W/m2 OVC
21:25 41.0 °F /  5 °C 35.0 °F /  1.7 °C 30.04in /  1017.2hPa Calm     79% 0.00in /  0mm 0.0 W/m2 OVC
21:30 41.0 °F /  5 °C 35.0 °F /  1.7 °C 30.04in /  1017.2hPa Calm     79% 0.00in /  0mm 0.0 W/m2 OVC
21:40 41.0 °F /  5 °C 35.0 °F /  1.7 °C 30.04in /  1017.2hPa Calm     79% 0.00in /  0mm 0.0 W/m2 OVC
21:45 41.0 °F /  5 °C 35.0 °F /  1.7 °C 30.04in /  1017.2hPa Calm     79% 0.00in /  0mm 0.0 W/m2 OVC
21:55 41.0 °F /  5 °C 35.0 °F /  1.7 °C 30.04in /  1017.2hPa Calm     79% 0.00in /  0mm 0.0 W/m2 OVC
22:10 39.0 °F /  3.9 °C 33.1 °F /  0.6 °C 30.07in /  1018.2hPa Calm     79% 0.00in /  0mm 0.0 W/m2 OVC
22:15 39.0 °F /  3.9 °C 33.1 °F /  0.6 °C 30.07in /  1018.2hPa Calm     79% 0.00in /  0mm 0.0 W/m2 OVC
22:25 39.0 °F /  3.9 °C 33.1 °F /  0.6 °C 30.07in /  1018.2hPa Calm     79% 0.00in /  0mm 0.0 W/m2 OVC
22:30 39.0 °F /  3.9 °C 33.1 °F /  0.6 °C 30.07in /  1018.2hPa Calm     79% 0.00in /  0mm 0.0 W/m2 OVC
22:40 37.0 °F /  2.8 °C 30.8 °F /  -0.7 °C 30.07in /  1018.2hPa Calm     78% 0.00in /  0mm 0.0 W/m2 SCT
22:45 37.0 °F /  2.8 °C 30.8 °F /  -0.7 °C 30.07in /  1018.2hPa Calm     78% 0.00in /  0mm 0.0 W/m2 SCT
23:00 37.0 °F /  2.8 °C 30.8 °F /  -0.7 °C 30.07in /  1018.2hPa Calm     78% 0.00in /  0mm 0.0 W/m2 SCT
23:15 36.0 °F /  2.2 °C 30.7 °F /  -0.7 °C 30.08in /  1018.5hPa Calm     81% 0.00in /  0mm 0.0 W/m2 CLR
23:20 36.0 °F /  2.2 °C 30.7 °F /  -0.7 °C 30.08in /  1018.5hPa Calm     81% 0.00in /  0mm 0.0 W/m2 CLR
23:40 36.0 °F /  2.2 °C 30.7 °F /  -0.7 °C 30.08in /  1018.5hPa Calm     81% 0.00in /  0mm 0.0 W/m2 CLR
23:45 36.0 °F /  2.2 °C 30.7 °F /  -0.7 °C 30.08in /  1018.5hPa Calm     81% 0.00in /  0mm 0.0 W/m2 CLR
23:55 36.0 °F /  2.2 °C 30.7 °F /  -0.7 °C 30.08in /  1018.5hPa Calm     81% 0.00in /  0mm 0.0 W/m2 CLR
Lake Mary, FL, USA
Compliments of Weather Underground - 1.5 mb